DW8835 La Escala ES current weather conditions

sailwx.info

Wind from 338 at 1 knots gusting 1

Air temperature 10.6° C
Dewpoint 9.5° C

Last reported at 2014-Nov-27 00:49 UTC.
Time now 2014-Nov-27 01:36 UTC

Location: N 42°07' E 003°08'.
View on Google Maps.

See reports from other nearby stations

  
Tides and Currents Weather Stations Pressure Air Temp Water Temp Dewpoint Dewpoint Depression Visibility Wind Speed Wind Dir Waves Ship Positions
date/time (UTC)wind fromknots sea level pressurealtimeterstation pressurevisibilityair tempwater tempwave heightnotes
2014-Nov-27 00:49 338 1 gusting 1 10.6
2014-Nov-27 00:29 338 11.1
2014-Nov-27 00:19 338 11.1
2014-Nov-26 23:59 338 11.1
2014-Nov-26 23:49 338 1 gusting 2 11.1
2014-Nov-26 23:29 338 11.7
2014-Nov-26 23:19 338 0 gusting 2 11.7
2014-Nov-26 22:59 204 0 gusting 6 11.7
2014-Nov-26 22:49 193 2 gusting 6 12.2
2014-Nov-26 22:28 208 0 gusting 2 12.2
2014-Nov-26 22:19 203 1 gusting 3 12.2
2014-Nov-26 21:58 195 2 gusting 5 12.2
2014-Nov-26 21:49 188 2 gusting 4 12.2
2014-Nov-26 21:29 300 1 gusting 2 12.2
2014-Nov-26 21:19 300 0 gusting 2 12.8
2014-Nov-26 20:58 300 12.8
2014-Nov-26 20:49 300 0 gusting 3 12.8
2014-Nov-26 20:29 193 0 gusting 1 13.3
2014-Nov-26 20:18 191 1 gusting 4 13.9
2014-Nov-26 19:58 198 2 gusting 6 13.9
2014-Nov-26 19:49 211 2 gusting 4 13.9
2014-Nov-26 19:28 262 1 gusting 2 13.9
2014-Nov-26 19:18 265 13.9
2014-Nov-26 18:58 225 0 gusting 3 14.4
2014-Nov-26 18:48 174 1 gusting 3 14.4
2014-Nov-26 18:28 155 2 gusting 4 15.0
2014-Nov-26 18:19 160 1 gusting 5 15.0
2014-Nov-26 17:59 159 2 gusting 4 15.0
2014-Nov-26 17:48 145 2 gusting 4 15.0
2014-Nov-26 17:29 165 0 gusting 4 15.6
2014-Nov-26 17:19 167 2 gusting 4 15.6
2014-Nov-26 16:59 113 15.6
2014-Nov-26 16:48 113 15.6
2014-Nov-26 16:28 113 16.1
2014-Nov-26 16:19 113 16.1
2014-Nov-26 15:58 113 16.1
2014-Nov-26 15:48 113 16.1
2014-Nov-26 15:29 113 16.1
2014-Nov-26 15:18 113 16.1
2014-Nov-26 14:58 113 16.1
2014-Nov-26 14:49 113 16.1
2014-Nov-26 14:29 113 16.1
2014-Nov-26 14:18 113 0 gusting 1 16.1
2014-Nov-26 13:58 115 0 gusting 1 16.1
2014-Nov-26 13:49 115 16.1
2014-Nov-26 13:28 115 16.1
2014-Nov-26 13:19 116 16.1
2014-Nov-26 12:59 113 1 gusting 6 16.1
2014-Nov-26 12:48 125 0 gusting 4 16.1
2014-Nov-26 12:28 110 3 gusting 7 16.7
2014-Nov-26 12:18 102 1 gusting 4 16.7
2014-Nov-26 11:58 101 0 gusting 3 17.2
2014-Nov-26 11:48 103 17.2
2014-Nov-26 11:28 055 0 gusting 3 16.7
2014-Nov-26 11:19 349 16.1
2014-Nov-26 10:58 349 1 gusting 2 16.1
2014-Nov-26 10:49 351 0 gusting 1 16.1
2014-Nov-26 10:28 351 16.1
2014-Nov-26 10:19 351 16.1
2014-Nov-26 09:59 351 15.6
2014-Nov-26 09:48 351 15.6
2014-Nov-26 09:29 344 0 gusting 2 15.6
2014-Nov-26 09:18 344 0 gusting 1 15.0
2014-Nov-26 08:58 344 0 gusting 2 15.0
2014-Nov-26 08:49 344 15.0
2014-Nov-26 08:29 344 0 gusting 1 15.0
2014-Nov-26 08:18 344 15.0
2014-Nov-26 07:59 344 14.4
2014-Nov-26 07:48 344 14.4
2014-Nov-26 07:28 344 14.4
2014-Nov-26 07:19 344 14.4
2014-Nov-26 06:58 344 14.4
2014-Nov-26 06:49 344 14.4
2014-Nov-26 06:28 344 14.4
2014-Nov-26 06:19 344 14.4
2014-Nov-26 05:59 344 14.4
2014-Nov-26 05:48 344 14.4
2014-Nov-26 05:28 344 14.4
2014-Nov-26 05:18 344 14.4
2014-Nov-26 04:58 344 15.0
2014-Nov-26 04:48 344 15.0
2014-Nov-26 04:38 344 15.0
2014-Nov-26 04:29 344 15.0
2014-Nov-26 04:19 344 15.0
2014-Nov-26 04:08 344 15.0
2014-Nov-26 03:58 344 1 gusting 2 15.0
2014-Nov-26 03:49 320 0 gusting 1 15.0
2014-Nov-26 03:28 174 15.0
2014-Nov-26 03:18 174 15.0
2014-Nov-26 02:58 174 15.0
2014-Nov-26 02:48 174 15.0
2014-Nov-26 02:28 174 15.0
2014-Nov-26 02:18 174 15.6
2014-Nov-26 01:58 173 15.6
2014-Nov-26 01:48 173 15.6
2014-Nov-26 01:29 172 15.6
2014-Nov-26 01:18 172 15.6
2014-Nov-26 00:59 203 15.6
2014-Nov-26 00:48 203 15.6
2014-Nov-26 00:28 206 15.6
2014-Nov-26 00:18 206 15.6
2014-Nov-25 23:58 206 16.1
2014-Nov-25 23:48 206 16.1
2014-Nov-25 23:38 206 16.1
2014-Nov-25 23:29 206 16.1
2014-Nov-25 23:18 205 16.1
2014-Nov-25 23:09 205 16.1
2014-Nov-25 22:58 205 16.1
2014-Nov-25 22:48 138 16.1
2014-Nov-25 22:29 138 16.1
2014-Nov-25 22:18 138 16.7
2014-Nov-25 21:58 138 16.7
2014-Nov-25 21:49 138 16.7
2014-Nov-25 21:28 138 16.7
2014-Nov-25 21:18 138 0 gusting 0 16.7
2014-Nov-25 20:58 139 16.1
2014-Nov-25 20:48 138 16.7
2014-Nov-25 20:28 138 16.7
2014-Nov-25 20:18 138 16.7
2014-Nov-25 19:58 138 16.7
2014-Nov-25 19:48 138 16.7
2014-Nov-25 19:39 138 16.7
2014-Nov-25 19:28 138 16.7
2014-Nov-25 19:18 138 16.7
2014-Nov-25 19:08 138 16.7
2014-Nov-25 18:58 138 16.7
2014-Nov-25 18:48 138 16.7
2014-Nov-25 18:28 138 17.2
2014-Nov-25 18:19 138 17.2
2014-Nov-25 17:58 137 1 gusting 5 17.2
2014-Nov-25 17:48 154 2 gusting 3 17.2
2014-Nov-25 17:38 138 17.2
2014-Nov-25 17:28 125 0 gusting 2 17.2
2014-Nov-25 17:18 121 0 gusting 3 17.2
2014-Nov-25 17:08 124 0 gusting 3 17.2
2014-Nov-25 16:58 142 2 gusting 3 17.2
2014-Nov-25 16:48 150 1 gusting 3 17.2
2014-Nov-25 16:38 121 1 gusting 3 17.2
2014-Nov-25 16:28 140 2 gusting 4 17.2
2014-Nov-25 16:18 129 0 gusting 6 17.2
2014-Nov-25 16:08 118 1 gusting 6 17.2
2014-Nov-25 15:58 101 2 gusting 4 17.2
2014-Nov-25 15:48 117 1 gusting 4 17.8
2014-Nov-25 15:38 102 1 gusting 6 17.8
2014-Nov-25 15:28 088 3 gusting 4 17.8
2014-Nov-25 15:18 119 0 gusting 3 17.8
2014-Nov-25 15:08 121 0 gusting 3 17.8
2014-Nov-25 14:58 138 1 gusting 4 17.8
2014-Nov-25 14:48 109 2 gusting 3 18.3
2014-Nov-25 14:28 109 1 gusting 4 18.3
2014-Nov-25 14:18 097 2 gusting 5 18.3
2014-Nov-25 13:58 133 1 gusting 5 18.3
2014-Nov-25 13:48 134 2 gusting 4 18.3
2014-Nov-25 13:28 138 0 gusting 1 18.3
2014-Nov-25 13:18 138 0 gusting 3 17.8
2014-Nov-25 12:58 059 18.3
2014-Nov-25 12:48 059 17.8
2014-Nov-25 12:28 059 0 gusting 2 17.2
2014-Nov-25 12:18 059 1 gusting 2 17.8
2014-Nov-25 11:58 076 1 gusting 2 17.8
2014-Nov-25 11:48 296 0 gusting 4 17.8
2014-Nov-25 11:28 321 1 gusting 4 17.2
2014-Nov-25 11:18 192 2 gusting 5 17.2
2014-Nov-25 10:58 304 2 gusting 4 17.2
2014-Nov-25 10:48 286 2 gusting 3 16.7
2014-Nov-25 10:28 287 16.7
2014-Nov-25 10:18 287 1 gusting 2 16.1
2014-Nov-25 09:58 277 1 gusting 2 16.1
2014-Nov-25 09:48 194 15.6
2014-Nov-25 09:28 193 15.6
2014-Nov-25 09:18 193 15.6
2014-Nov-25 08:58 192 0 gusting 2 15.6
2014-Nov-25 08:48 300 15.6
2014-Nov-25 08:28 300 15.0
2014-Nov-25 08:18 345 0 gusting 3 15.0
2014-Nov-25 07:58 346 15.0
2014-Nov-25 07:48 346 0 gusting 2 15.0
2014-Nov-25 07:28 355 14.4
2014-Nov-25 07:18 355 14.4
2014-Nov-25 06:58 355 14.4
2014-Nov-25 06:48 355 14.4
2014-Nov-25 05:48 355 15.0
2014-Nov-25 05:28 355 15.0
2014-Nov-25 05:18 355 15.0
2014-Nov-25 04:58 355 15.0
2014-Nov-25 04:48 355 15.0
2014-Nov-25 04:28 355 0 gusting 2 15.0
2014-Nov-25 04:18 355 0 gusting 3 15.6
2014-Nov-25 03:58 355 1 gusting 4 15.6
2014-Nov-25 03:48 355 2 gusting 5 15.6
2014-Nov-25 03:28 343 3 gusting 6 16.1
2014-Nov-25 03:18 005 3 gusting 6 16.1
2014-Nov-25 02:58 005 2 gusting 3 16.1
2014-Nov-25 02:48 009 1 gusting 4 16.1
2014-Nov-25 02:28 349 3 gusting 4 16.1
2014-Nov-25 02:18 360 1 gusting 6 16.1
2014-Nov-25 01:58 337 4 gusting 7 16.1
2014-Nov-25 01:48 023 2 gusting 6 16.1
2014-Nov-25 01:28 360 2 gusting 5 16.1
2014-Nov-25 01:18 355 1 gusting 3 16.1